Kit Carson, Colorado
Current Conditions -  °F | °C
As of 4:53 PM on Thursday 18 Dec 2014 (Local Time) from KITR Reporting Station
Clear Clear  
Wind Chill: 37°   Ceiling: Unl
Heat Index: 37°   Visibility: 10mi
Dew Point: 22°   Wind: 3mph
Humidity: 54%   Direction: 110°ESE
Pressure: 30.07"   Gusts: NA
Location:  38.76°N, 102.79°W
Report Text: KITR 182353Z AUTO 11003KT 10SM CLR 03/M06 A3007 RMK AO2 SLP204 T00281056 10067 21006 53010
Loading
Personal Weather Stations






























Interactive Weather Map New forecast layout! Learn more

10-Day Weather Forecast

Advertisements
Track Severe Weather on mobile